Tiempo atmosférico en la estación meteorológica de Fisterra, A Coruña (230 m.)

Fecha
DESCASC
Temp. máxima en grados centígrados (hora)
DESCASC
Temp. mínima en grados centígrados (hora)
DESCASC
Temp. media en grados centígrados
DESCASC
Racha de viento máxima en m/sg (hora)
DESCASC
Velocidad máxima media en intervalos de 10 minutos(hora)
DESCASC
Precipitaciones diarias en mm
DESCASC
Precipitaciones de 00:00 a 06:00 en mm
DESCASC
Precipitaciones de 06:00 a 12:00 en mm
DESCASC
Precipitaciones de 12:00 a 18:00 en mm
DESCASC
Precipitaciones de 18:00 a 24:00 en mm
DESCASC
17-09-2017 19.8 (17:20) 12.9 (08:40) 16.3 13.89 (23:59) 7.5 (17:30) 6.4 0 0 0 6.4
16-09-2017 17 (17:30) 11.4 (04:50) 14.2 11.39 (04:40) 8.61 (01:00) 0.4 0.2 0.2 0 0
15-09-2017 15.9 (17:10) 12.8 (03:40) 14.3 18.61 (17:50) 12.22 (03:30) 0 0 0 0 0
14-09-2017 17.6 (03:40) 13.7 (00:00) 15.7 19.44 (04:30) 12.5 (05:10) 1 1 0 0 0
13-09-2017 20 (17:00) 16.8 (00:00) 18.4 12.22 (22:40) 8.33 (22:30) 0.2 0 0 0.2 0
12-09-2017 20.2 (16:40) 15.2 (00:00) 17.7 11.39 (07:40) 7.78 (07:30) 2.6 0.8 0.8 0.8 0.2
11-09-2017 19.2 (17:00) 15.1 (00:00) 17.2 12.5 (05:30) 8.33 (03:00) 1 0.8 0.2 0 0
10-09-2017 19.1 (13:00) 14.3 (00:00) 16.7 11.67 (01:10) 6.67 (01:20) 3.8 0.2 0 0.2 3.4
09-09-2017 17.5 (16:30) 13.1 (00:00) 15.3 19.17 (08:10) 9.17 (05:50) 0 0 0 0 0
08-09-2017 20.8 (16:40) 13.9 (00:00) 17.3 15.56 (01:20) 10.83 (05:20) -- 0 -- 0 0
07-09-2017 19.7 (13:20) 14.1 (00:00) 16.9 20.83 (00:50) 12.78 (00:50) 0 0 0 0 0
06-09-2017 19.9 (17:10) 14.4 (00:00) 17.1 20.28 (21:40) 13.06 (20:40) 0 0 0 0 0
05-09-2017 21 (14:30) 15.5 (00:00) 18.3 16.11 (21:40) 10.83 (21:30) 0.6 0.4 0 0 0.2
04-09-2017 20.9 (16:50) 16.8 (00:00) 18.8 11.39 (01:20) 6.94 (01:20) 0.2 0.2 0 0 0
03-09-2017 18.7 (14:40) 15 (00:00) 16.9 14.17 (22:00) 10.83 (18:30) 3.8 0 0 2.8 1
02-09-2017 23 (15:10) 13 (00:00) 18 15.28 (08:40) 10.83 (08:40) 0 0 0 0 0
01-09-2017 19.3 (17:50) 13.9 (00:00) 16.6 17.78 (18:10) 11.11 (14:50) 0 0 0 0 0
31-08-2017 19.5 (15:00) 13.7 (00:00) 16.6 20.83 (20:00) 12.5 (20:00) 0 0 0 0 0
30-08-2017 18.6 (16:30) 14.2 (00:00) 16.4 16.11 (10:20) 10.28 (09:40) 0.2 0 0 0.2 0
29-08-2017 18.3 (16:30) 16.5 (00:00) 17.4 16.39 (04:30) 11.39 (18:30) 0 0 0 0 0
28-08-2017 22.4 (14:00) 16.6 (00:00) 19.5 16.39 (17:00) 12.22 (16:50) 0 0 0 0 0
27-08-2017 21 (16:30) 15.7 (00:00) 18.3 10.56 (05:50) 8.33 (06:00) 0.2 0 0.2 0 0
26-08-2017 24.8 (16:10) 16.6 (00:00) 20.7 12.5 (20:20) 8.61 (20:30) 0.4 0 0.4 0 0
25-08-2017 19.7 (17:50) 14.8 (00:00) 17.3 12.22 (16:50) 7.5 (23:50) 0 0 0 0 0
24-08-2017 19.2 (17:20) 15.4 (00:00) 17.3 16.11 (15:40) 11.39 (16:00) 0 0 0 0 0
23-08-2017 20.7 (13:00) 15.9 (00:00) 18.3 18.89 (18:00) 12.22 (03:00) 0 0 0 0 0
22-08-2017 20.6 (15:50) 16.5 (00:00) 18.6 15.56 (22:10) 11.94 (22:20) 0 0 0 0 0

Gráficas

Temp. máximas Temp. mínimas Temp. medias Precipitaciones Rachas de viento máximas Velocidades máximas media en intervalos de 10 minutos

Datos horarios

Fecha y hora oficial Temperatura (ºC) Velocidad del viento (km/h) Dirección del viento Racha (km/h) Dirección de racha Precipitación (mm) Presión (hPa) Tendencia (hPa) Humedad (%)
2017-09-20 23:00:00 17.5 10 Sudoeste 23 Oeste 0 991 0.2 86
2017-09-20 22:00:00 17.1 15 Oeste 24 Noroeste 0 991 0.2 87
2017-09-20 21:00:00 16.8 16 Noroeste 25 Norte 0 990.8 -0.3 89
2017-09-20 20:00:00 18 14 Norte 23 Noroeste 0 990.8 -0.6 82
2017-09-20 19:00:00 18.5 14 Norte 27 Norte 0 990.8 -0.9 77
2017-09-20 18:00:00 18.2 17 Norte 29 Norte 0 991.1 -1.2 74
2017-09-20 17:00:00 18.6 15 Noroeste 25 Noroeste 0 991.4 -1.6 69
2017-09-20 16:00:00 19.4 12 Norte 25 Nordeste 0 991.7 -1.6 59
2017-09-20 15:00:00 20.2 20 Nordeste 27 Nordeste 0 992.3 -1.2 63
2017-09-20 14:00:00 16.8 13 Norte 27 Norte 0 993 -0.6 76
2017-09-20 13:00:00 16.6 13 Norte 23 Norte 0 993.3 0 78
2017-09-20 12:00:00 16.4 15 Norte 20 Norte 0 993.5 0.3 81
2017-09-20 11:00:00 16.1 10 Nordeste 23 Nordeste 0 993.6 0.5 80
2017-09-20 10:00:00 15.5 19 Nordeste 26 Nordeste 0 993.3 -0.1 81
2017-09-20 09:00:00 14.5 21 Nordeste 30 Nordeste 0 993.2 -0.6 86
2017-09-20 08:00:00 14.5 23 Nordeste 32 Nordeste 0 993.1 -1.1 82
2017-09-20 07:00:00 14.7 22 Nordeste 32 Nordeste 0 993.4 -1.3 80
2017-09-20 06:00:00 14.9 23 Nordeste 33 Nordeste 0 993.8 -1.2 79
2017-09-20 05:00:00 14.6 26 Nordeste 34 Este 0 994.2 -1.2 85
2017-09-20 04:00:00 14.7 27 Nordeste 35 Nordeste 0 994.7 -1.1 85
2017-09-20 03:00:00 14.6 25 Nordeste 34 Nordeste 0 995 -1 83
2017-09-20 02:00:00 14.7 24 Nordeste 36 Nordeste 0 995.4 -0.8 82
2017-09-20 01:00:00 14.9 25 Nordeste 43 Nordeste 0 995.8 -0.5 83
2017-09-20 00:00:00 15 35 Nordeste 44 Nordeste 0 996 0.1 85
2017-09-19 23:00:00 14.9 34 Nordeste 43 Nordeste 0 996.2 0.3 82
2017-09-19 22:00:00 14.8 33 Nordeste 39 Nordeste 0 996.3 0.3 83
2017-09-19 21:00:00 15.3 26 Nordeste 42 Norte 0 995.9 -0.3 74
2017-09-19 20:00:00 16.3 28 Norte 44 Norte 0 995.9 -0.6 65
2017-09-19 19:00:00 17 24 Norte 46 Norte 0 996 -0.9 64
2017-09-19 18:00:00 17.4 26 Norte 43 Norte 0 996.2 -1 61
2017-09-19 17:00:00 17.4 25 Norte 42 Norte 0 996.5 -1.2 67
2017-09-19 16:00:00 17.5 26 Norte 40 Norte 0 996.9 -1.1 70
2017-09-19 15:00:00 17.5 21 Norte 32 Norte 0 997.2 -0.8 70
2017-09-19 14:00:00 17.2 17 Norte 29 Norte 0 997.7 0 77
2017-09-19 13:00:00 16.7 17 Norte 24 Norte 0 998 0.6 80
2017-09-19 12:00:00 16.4 13 Norte 23 Nordeste 0 998 0.9 81
2017-09-19 11:00:00 16.6 14 Nordeste 28 Nordeste 0 997.7 1 77
2017-09-19 10:00:00 15.3 18 Nordeste 26 Nordeste 0 997.4 0.8 79
2017-09-19 09:00:00 14.7 18 Nordeste 27 Nordeste 0 997.1 0.5 78
2017-09-19 08:00:00 14.5 20 Nordeste 29 Nordeste 0 996.7 0 78
2017-09-19 07:00:00 14.4 20 Nordeste 26 Nordeste 0 996.6 -0.4 82
2017-09-19 06:00:00 14.2 17 Nordeste 23 Nordeste 0 996.6 -0.7 83
2017-09-19 05:00:00 14.7 17 Nordeste 27 Nordeste 0 996.7 -0.4 81
2017-09-19 04:00:00 15 20 Nordeste 28 Nordeste 0 997 -0.1 85
2017-09-19 03:00:00 14.8 22 Nordeste 28 Nordeste 0 997.3 0.2 88
2017-09-19 02:00:00 14.7 21 Nordeste 28 Nordeste 0 997.1 0.2 90
2017-09-19 01:00:00 14.7 22 Nordeste 31 Nordeste 0 997.1 0.6 89
2017-09-19 00:00:00 14.7 21 Nordeste 31 Nordeste 0 997.1 1.2 88
2017-09-18 23:00:00 14.9 22 Este 38 Nordeste 0 996.9 1.2 88
2017-09-18 22:00:00 15.1 26 Nordeste 39 Nordeste 0 996.5 1.3 89
2017-09-18 21:00:00 15.5 26 Nordeste 35 Nordeste 0 995.9 1 88
2017-09-18 20:00:00 16.6 18 Nordeste 32 Nordeste 0 995.7 0.9 85
2017-09-18 19:00:00 17 23 Nordeste 33 Nordeste 0 995.2 0.6 84
2017-09-18 18:00:00 18 18 Nordeste 29 Norte 0 994.9 0.5 80
2017-09-18 17:00:00 18.7 9 Norte 18 Norte 0 994.8 0.7 81
2017-09-18 16:00:00 19.4 9 Noroeste 23 Norte 0 994.6 0.9 82
2017-09-18 15:00:00 18.1 16 Norte 27 Noroeste 0 994.4 1.1 86
2017-09-18 14:00:00 18.4 13 Noroeste 26 Noroeste 0 994.1 1.6 89
2017-09-18 13:00:00 17 16 Noroeste 32 Noroeste 0 993.7 1.9 92
2017-09-18 12:00:00 17.1 18 Oeste 42 Noroeste 0 993.3 1.7 94
2017-09-18 11:00:00 16.1 27 Oeste 45 Noroeste 0 992.5 1.4 94
2017-09-18 10:00:00 15.3 23 Noroeste 58 Oeste 0.6 991.8 1 92
2017-09-18 09:00:00 16.1 20 Oeste 30 Oeste 0 991.6 1.1 91
2017-09-18 08:00:00 16 17 Noroeste 33 Oeste 0 991.1 0.7 90
2017-09-18 07:00:00 15.7 15 Noroeste 42 Norte 0 990.8 0.4 90
2017-09-18 06:00:00 15.5 24 Noroeste 48 Norte 0.2 990.5 -0.1 91
2017-09-18 05:00:00 16 21 Oeste 32 Oeste 0 990.4 -0.2 93
2017-09-18 04:00:00 16 23 Oeste 36 Oeste 0 990.4 -0.4 94
2017-09-18 03:00:00 15.3 11 Oeste 31 Oeste 0 990.6 -0.4 94
2017-09-18 02:00:00 14.7 16 Sudoeste 50 Sur 0.2 990.6 -0.9 95
2017-09-18 01:00:00 14 28 Sur 51 Sur 0.6 990.8 -1 94
2017-09-18 00:00:00 13.8 25 Sur 50 Sur 1.6 991 -1.2 93
2017-09-17 23:00:00 14 24 Sur 41 Sudoeste 3.4 991.5 -0.2 91
2017-09-17 22:00:00 14.4 23 Sur 36 Sur 1.4 991.8 -0.3 91
2017-09-17 21:00:00 14.7 26 Sudoeste 39 Sur 0 992.2 0 88
2017-09-17 20:00:00 15.3 22 Sudoeste 33 Sudoeste 0 991.7 -1 85
2017-09-17 19:00:00 16.4 19 Sudoeste 30 Sudoeste 0 992.1 -0.4 80
2017-09-17 18:00:00 17.1 23 Sudoeste 34 Sudoeste 0 992.2 -0.9 76
2017-09-17 17:00:00 19.2 25 Sudoeste 34 Sudoeste 0 992.7 -0.6 72
2017-09-17 16:00:00 18.6 22 Sudoeste 30 Sudoeste 0 992.5 -1.1 70
2017-09-17 15:00:00 17.3 20 Sudoeste 32 Sudoeste 0 993.1 -0.4 75
2017-09-17 14:00:00 15.7 13 Sur 26 Sudoeste 0 993.3 -0.1 77
2017-09-17 13:00:00 15.6 13 Sur 22 Sur 0 993.6 0.7 76
2017-09-17 12:00:00 15.2 16 Sur 23 Sur 0 993.5 0.8 76
2017-09-17 11:00:00 14.2 7 Sur 15 Sur 0 993.4 1.1 80
2017-09-17 10:00:00 13.2 7 Sudeste 12 Sudeste 0 992.9 0.9 83
2017-09-17 09:00:00 13.2 5 Noroeste 37 Noroeste 0 992.7 0.7 76
2017-09-17 08:00:00 13.4 13 Oeste 20 Noroeste 0 992.3 0.4 82
2017-09-17 07:00:00 13.3 6 Sudoeste 20 Noroeste 0 992 -0.1 80
2017-09-17 06:00:00 13.4 12 Noroeste 24 Oeste 0 992 -0.3 78
2017-09-17 05:00:00 13.6 13 Oeste 24 Oeste 0 991.9 -0.7 80
2017-09-17 04:00:00 13.6 7 Oeste 11 Noroeste 0 992.1 -1 76
2017-09-17 03:00:00 13.3 5 Oeste 18 Noroeste 0 992.3 -0.6 74
2017-09-17 02:00:00 13.7 9 Noroeste 14 Noroeste 0 992.6 -0.3 72
2017-09-17 01:00:00 13.5 8 Noroeste 13 Norte 0 993.1 0.5 75
2017-09-17 00:00:00 13.6 11 Norte 20 Norte 0 992.9 0.7 74
2017-09-16 23:00:00 13.6 17 Norte 29 Norte 0 992.9 0.8 73
2017-09-16 22:00:00 13.5 20 Norte 30 Norte 0 992.6 0.7 75
2017-09-16 21:00:00 13.9 16 Norte 34 Norte 0 992.2 0.1 75
2017-09-16 20:00:00 14.3 19 Norte 39 Norte 0 992.1 0 69
2017-09-16 19:00:00 15.1 22 Norte 34 Norte 0 991.9 -0.4 68
2017-09-16 18:00:00 15.1 15 Norte 24 Norte 0 992.1 -0.5 66
2017-09-16 17:00:00 16.5 15 Norte 24 Noroeste 0 992.1 -0.9 60
2017-09-16 16:00:00 15.4 12 Norte 20 Norte 0 992.3 -0.5 67
2017-09-16 15:00:00 15.8 10 Noroeste 29 Norte 0 992.6 -0.5 72
2017-09-16 14:00:00 15.8 14 Norte 22 Norte 0 993 0 67
2017-09-16 13:00:00 15.9 10 Norte 17 Nordeste 0 992.8 0.5 68
2017-09-16 12:00:00 14.7 10 Nordeste 19 Nordeste 0 993.1 1 72
2017-09-16 11:00:00 14.6 14 Nordeste 24 Nordeste 0 993 1.6 71
2017-09-16 10:00:00 12.3 18 Nordeste 37 Nordeste 0.2 992.3 1.2 77
2017-09-16 09:00:00 11.5 21 Este 31 Nordeste 0 992.1 0.8 85
2017-09-16 08:00:00 12.2 17 Norte 28 Norte 0 991.4 -0.1 81
2017-09-16 07:00:00 12.3 25 Nordeste 38 Nordeste 0 991.1 -0.9 78
2017-09-16 06:00:00 12.3 27 Nordeste 40 Nordeste 0 991.3 -0.9 80
2017-09-16 05:00:00 11.5 26 Nordeste 41 Nordeste 0.2 991.5 -1.2 86
2017-09-16 04:00:00 12.4 23 Nordeste 32 Nordeste 0 992 -1 79
2017-09-16 03:00:00 12.4 23 Nordeste 32 Norte 0 992.2 -1 72
2017-09-16 02:00:00 12.6 25 Nordeste 40 Nordeste 0 992.7 -0.5 78
2017-09-16 01:00:00 12.7 31 Nordeste 41 Nordeste 0 993 -0.3 77
2017-09-16 00:00:00 13 26 Nordeste 37 Nordeste 0 993.2 0.4 73
2017-09-15 23:00:00 13.1 30 Nordeste 38 Nordeste 0 993.2 0.4 75
2017-09-15 22:00:00 13.2 23 Nordeste 42 Nordeste 0 993.3 0.7 74
2017-09-15 21:00:00 13.6 26 Nordeste 50 Nordeste 0 992.8 0.2 74
2017-09-15 20:00:00 14.9 27 Norte 53 Norte 0 992.8 -0.1 67
2017-09-15 19:00:00 15.3 30 Norte 53 Norte 0 992.6 -0.6 66
2017-09-15 18:00:00 15.7 36 Norte 67 Nordeste 0 992.6 -1.1 65
2017-09-15 17:00:00 15.7 33 Norte 56 Norte 0 992.9 -1.5 61
2017-09-15 16:00:00 15.5 32 Norte 53 Norte 0 993.2 -1.4 62
2017-09-15 15:00:00 15.2 31 Norte 46 Norte 0 993.7 -1.1 65
2017-09-15 14:00:00 14.9 24 Norte 49 Norte 0 994.4 -0.3 73
2017-09-15 13:00:00 13.5 24 Norte 56 Norte 0 994.6 0.4 81
2017-09-15 12:00:00 15.5 15 Nordeste 26 Nordeste 0 994.8 0.8 69
2017-09-15 11:00:00 13.8 18 Nordeste 42 Norte 0 994.7 0.8 76
2017-09-15 10:00:00 13.6 21 Norte 39 Nordeste 0 994.2 0.3 71
2017-09-15 09:00:00 13.2 28 Nordeste 42 Nordeste 0 994 -0.2 72
2017-09-15 08:00:00 13 31 Nordeste 38 Nordeste 0 993.9 -0.6 71
2017-09-15 07:00:00 13.2 28 Nordeste 42 Nordeste 0 993.9 -0.9 70
2017-09-15 06:00:00 13.6 30 Nordeste 42 Nordeste 0 994.2 -0.8 69
2017-09-15 05:00:00 13.5 27 Nordeste 51 Nordeste 0 994.5 -0.9 74
2017-09-15 04:00:00 13 35 Norte 67 Norte 0 994.8 -1 82
2017-09-15 03:00:00 13.7 36 Norte 55 Norte 0 995 -0.9 84
2017-09-15 02:00:00 13.6 31 Nordeste 50 Nordeste 0 995.4 -0.8 78
2017-09-15 01:00:00 13.8 30 Nordeste 47 Nordeste 0 995.8 -0.4 80
2017-09-15 00:00:00 13.8 28 Nordeste 54 Norte 0 995.9 -0.1 80
2017-09-14 23:00:00 14.2 26 Norte 45 Norte 0 996.2 0.3 75
2017-09-14 22:00:00 14.3 32 Nordeste 54 Norte 0 996.2 0.4 68
2017-09-14 21:00:00 14.5 32 Nordeste 49 Nordeste 0 996 0 68
2017-09-14 20:00:00 15.5 31 Norte 63 Norte 0 995.9 -0.5 63
2017-09-14 19:00:00 16.4 36 Norte 59 Norte 0 995.8 -1.2 57
2017-09-14 18:00:00 16.6 29 Norte 59 Nordeste 0 996 -1.4 62
2017-09-14 17:00:00 16.4 31 Norte 56 Norte 0 996.4 -1.2 60
2017-09-14 16:00:00 16.6 35 Norte 62 Norte 0 997 -0.8 60
2017-09-14 15:00:00 16.5 32 Norte 59 Norte 0 997.4 -0.8 65
2017-09-14 14:00:00 17 30 Nordeste 56 Nordeste 0 997.6 -0.3 57
2017-09-14 13:00:00 15.8 36 Norte 57 Nordeste 0 997.8 0.6 65
2017-09-14 12:00:00 16 28 Nordeste 46 Nordeste 0 998.2 1.5 57
2017-09-14 11:00:00 15.5 26 Nordeste 44 Nordeste 0 997.9 1.9 64
2017-09-14 10:00:00 14.6 26 Nordeste 45 Nordeste 0 997.2 1.8 67
2017-09-14 09:00:00 14.2 32 Nordeste 51 Nordeste 0 996.7 1.7 79
2017-09-14 08:00:00 14.5 33 Nordeste 54 Norte 0 996 1.3 77
2017-09-14 07:00:00 14.6 36 Nordeste 52 Nordeste 0 995.4 0.8 82
2017-09-14 06:00:00 14.4 40 Nordeste 58 Nordeste 0 995 0.2 90
2017-09-14 05:00:00 14.1 42 Nordeste 70 Norte 0.2 994.7 -0.4 95
2017-09-14 04:00:00 15.7 37 Norte 54 Norte 0.6 994.6 -0.9 95
2017-09-14 03:00:00 17.4 22 Oeste 29 Oeste 0.2 994.8 -0.7 95
2017-09-14 02:00:00 17.2 18 Oeste 36 Noroeste 0 995.1 -0.3 95
2017-09-14 01:00:00 17.3 21 Oeste 32 Noroeste 0 995.5 0.3 95
2017-09-14 00:00:00 17.3 23 Noroeste 36 Noroeste 0 995.5 0.6 95
2017-09-13 23:00:00 17.4 21 Noroeste 44 Oeste 0 995.4 0.5 95
2017-09-13 22:00:00 18 28 Oeste 35 Oeste 0 995.2 0.1 94
2017-09-13 21:00:00 18 29 Oeste 39 Oeste 0 994.9 -0.4 94
2017-09-13 20:00:00 18.1 26 Oeste 36 Oeste 0 994.9 -0.7 94
2017-09-13 19:00:00 18.2 23 Oeste 30 Noroeste 0 995.1 -0.6 92
2017-09-13 18:00:00 18.1 18 Oeste 24 Oeste 0 995.3 -0.6 90
2017-09-13 17:00:00 20 15 Oeste 31 Noroeste 0 995.6 -0.7 85
2017-09-13 16:00:00 18.1 15 Oeste 22 Oeste 0.2 995.7 -0.6 92
2017-09-13 15:00:00 17.7 12 Oeste 31 Oeste 0 995.9 -0.3 93
2017-09-13 14:00:00 19.8 14 Sudoeste 21 Oeste 0 996.3 0.3 83
2017-09-13 13:00:00 18.2 14 Oeste 23 Oeste 0 996.3 0.7 89
2017-09-13 12:00:00 19 12 Sudoeste 18 Oeste 0 996.2 0.9 87
2017-09-13 11:00:00 18.1 10 Sudoeste 22 Oeste 0 996 1 90
2017-09-13 10:00:00 17.5 17 Oeste 24 Oeste 0 995.6 0.9 91
2017-09-13 09:00:00 17.2 14 Oeste 19 Oeste 0 995.3 0.7 94
2017-09-13 08:00:00 16.9 13 Oeste 27 Oeste 0 995 0.1 94
2017-09-13 07:00:00 17.4 17 Oeste 30 Oeste 0 994.7 -0.4 94
2017-09-13 06:00:00 17.4 17 Oeste 26 Oeste 0 994.6 -0.9 94
2017-09-13 05:00:00 17.4 20 Oeste 29 Noroeste 0 994.9 -0.7 94
2017-09-13 04:00:00 17.2 18 Oeste 26 Oeste 0 995.1 -0.7 94
2017-09-13 03:00:00 17.4 15 Oeste 31 Oeste 0 995.5 -0.5 94
2017-09-13 02:00:00 17.3 21 Oeste 26 Oeste 0 995.6 -0.2 93
2017-09-13 01:00:00 17.5 19 Oeste 26 Oeste 0 995.8 0.2 94
2017-09-13 00:00:00 17.4 15 Oeste 27 Oeste 0 996 1.1 94
2017-09-12 23:00:00 17.4 17 Oeste 26 Oeste 0 995.8 1.1 94
2017-09-12 22:00:00 17.5 16 Oeste 22 Oeste 0 995.6 1 94
2017-09-12 21:00:00 17.5 12 Sudoeste 18 Oeste 0 994.9 0.5 93
2017-09-12 20:00:00 17.5 13 Sudoeste 26 Oeste 0 994.7 0.1 90
2017-09-12 19:00:00 17.4 15 Oeste 28 Noroeste 0.2 994.6 0.1 93
2017-09-12 18:00:00 18.7 14 Oeste 19 Oeste 0.6 994.4 0 92
2017-09-12 17:00:00 19 14 Oeste 23 Noroeste 0 994.6 0.3 83
2017-09-12 16:00:00 18.1 9 Noroeste 29 Oeste 0 994.5 0.4 92
2017-09-12 15:00:00 19 16 Oeste 22 Oeste 0 994.4 0.8 86
2017-09-12 14:00:00 18.5 14 Oeste 18 Oeste 0 994.3 1.3 89
2017-09-12 13:00:00 18.1 7 Noroeste 15 Oeste 0.2 994.1 1.7 95
2017-09-12 12:00:00 17.1 8 Noroeste 24 Oeste 0.2 993.6 1.8 95
2017-09-12 11:00:00 17.6 8 Oeste 22 Noroeste 0 993 1.6 95
2017-09-12 10:00:00 16.9 12 Noroeste 31 Noroeste 0 992.4 1.4 95
2017-09-12 09:00:00 16.8 12 Noroeste 34 Noroeste 0 991.8 0.6 95
2017-09-12 08:00:00 16.7 24 Noroeste 41 Noroeste 0 991.4 0 95
2017-09-12 07:00:00 16.3 26 Oeste 40 Oeste 0.6 991 -0.8 94
2017-09-12 06:00:00 15.4 14 Sudoeste 26 Sudoeste 0.8 991.2 -0.8 93
2017-09-12 05:00:00 15.5 21 Sudoeste 31 Sudoeste 0 991.4 -0.8 91
2017-09-12 04:00:00 15.5 15 Sudoeste 23 Sudoeste 0 991.8 -0.5 91
2017-09-12 03:00:00 15.3 11 Sudoeste 16 Oeste 0 992 -0.5 91
2017-09-12 02:00:00 15.5 7 Noroeste 24 Oeste 0 992.2 -0.3 89
2017-09-12 01:00:00 16.1 14 Oeste 20 Oeste 0 992.3 0.2 83
2017-09-12 00:00:00 16.1 13 Oeste 19 Oeste 0 992.5 0.8 82
2017-09-11 23:00:00 15.8 6 Noroeste 27 Norte 0 992.5 0.7 82
2017-09-11 22:00:00 16.1 15 Noroeste 26 Noroeste 0 992.1 0.4 79
2017-09-11 21:00:00 16 10 Norte 33 Noroeste 0 991.7 0.1 78
2017-09-11 20:00:00 16.7 10 Noroeste 21 Noroeste 0 991.8 0.2 78
2017-09-11 19:00:00 17 12 Noroeste 24 Noroeste 0 991.7 0.3 76
2017-09-11 18:00:00 18.9 15 Noroeste 26 Noroeste 0 991.6 -0.2 75
2017-09-11 17:00:00 19.2 17 Noroeste 28 Noroeste 0 991.6 -0.4 71
2017-09-11 16:00:00 17.9 14 Norte 25 Noroeste 0 991.4 -0.4 71
2017-09-11 15:00:00 17.7 14 Norte 27 Norte 0 991.8 0.3 73
2017-09-11 14:00:00 17.4 12 Norte 24 Noroeste 0 992 0.9 81
2017-09-11 13:00:00 16.9 11 Norte 33 Norte 0 991.8 1.2 81
2017-09-11 12:00:00 16.8 16 Norte 25 Norte 0 991.5 1.1 77
2017-09-11 11:00:00 16.4 15 Norte 28 Norte 0.2 991.1 0.9 85
2017-09-11 10:00:00 15.9 14 Norte 27 Norte 0 990.6 0.8 92
2017-09-11 09:00:00 15.4 14 Norte 32 Norte 0 990.4 0.6 94
2017-09-11 08:00:00 15.5 23 Norte 31 Norte 0 990.2 0 95
2017-09-11 07:00:00 16.1 19 Norte 32 Norte 0 989.8 -0.2 95
2017-09-11 06:00:00 15.9 18 Norte 45 Noroeste 0 989.8 -0.3 95
2017-09-11 05:00:00 16.6 22 Noroeste 38 Noroeste 0 990.2 -0.3 95
2017-09-11 04:00:00 16.6 25 Noroeste 42 Oeste 0.4 990 -0.8 95
2017-09-11 03:00:00 17.5 30 Oeste 39 Oeste 0.2 990.1 -0.9 95
2017-09-11 02:00:00 17.4 21 Oeste 30 Oeste 0.2 990.5 -0.9 95
2017-09-11 01:00:00 17.2 16 Oeste 23 Oeste 0 990.8 -0.4 94
2017-09-11 00:00:00 16.9 5 Sudoeste 22 Oeste 0 991 -0.1 94
2017-09-10 23:00:00 17.2 12 Oeste 26 Noroeste 0.4 991.4 0.3 94
2017-09-10 22:00:00 15.5 9 Sudeste 16 Sudeste 0.4 991.2 0.1 94
2017-09-10 21:00:00 16.1 8 Sudoeste 25 Sur 0.8 991.1 -0.2 94
2017-09-10 20:00:00 15.7 20 Sur 28 Sur 1.2 991.1 -0.6 94
2017-09-10 19:00:00 15.4 19 Sur 26 Sur 0.6 991.1 -0.9 93
2017-09-10 18:00:00 15.5 14 Sur 24 Sur 0.2 991.3 -1.1 91
2017-09-10 17:00:00 15.9 12 Sur 19 Sudoeste 0 991.7 -0.8 90
2017-09-10 16:00:00 16.3 12 Sur 25 Sudoeste 0 992 -0.4 85
2017-09-10 15:00:00 16.7 11 Sudoeste 23 Sudoeste 0 992.4 0.2 81
2017-09-10 14:00:00 16.9 8 Sur 15 Sudoeste 0 992.5 0.6 80
2017-09-10 13:00:00 18.9 11 Sudoeste 21 Sudoeste 0 992.4 0.8 72
2017-09-10 12:00:00 17.2 9 Oeste 18 Oeste 0 992.2 1.2 75
2017-09-10 11:00:00 16.2 9 Noroeste 18 Noroeste 0 991.9 1.3 75
2017-09-10 10:00:00 15.5 8 Oeste 17 Noroeste 0 991.6 1.1 81
2017-09-10 09:00:00 14.9 8 Noroeste 15 Noroeste 0 991 0.6 84
2017-09-10 08:00:00 14.4 8 Noroeste 23 Norte 0 990.6 0.3 85
2017-09-10 07:00:00 14.7 9 Noroeste 19 Norte 0 990.5 0 86
2017-09-10 06:00:00 14.3 10 Norte 22 Norte 0.2 990.4 -0.3 86
2017-09-10 05:00:00 14.9 12 Norte 18 Norte 0 990.3 -0.3 83
2017-09-10 04:00:00 14.8 12 Norte 25 Norte 0 990.5 0 81
2017-09-10 03:00:00 14.9 20 Norte 27 Norte 0 990.7 0.5 80
2017-09-10 02:00:00 14.9 18 Norte 42 Noroeste 0 990.6 0.6 82
2017-09-10 01:00:00 15 22 Norte 33 Norte 0 990.5 0.9 85
2017-09-10 00:00:00 14.9 21 Norte 35 Norte 0 990.2 1.3 86
2017-09-09 23:00:00 15 18 Norte 35 Norte 0 990 1 82
2017-09-09 22:00:00 15.2 20 Norte 42 Norte 0 989.6 0.8 80
2017-09-09 21:00:00 15.5 23 Norte 41 Norte 0 988.9 0.2 76
2017-09-09 20:00:00 16 26 Norte 45 Norte 0 989 0.2 77
2017-09-09 19:00:00 16.8 29 Norte 48 Norte 0 988.8 -0.3 70
2017-09-09 18:00:00 17 29 Norte 42 Norte 0 988.7 -0.3 70
2017-09-09 17:00:00 17.1 30 Norte 45 Norte 0 988.8 -0.3 66
2017-09-09 16:00:00 16.9 30 Norte 43 Norte 0 989.1 -0.1 70
2017-09-09 15:00:00 16.8 24 Norte 35 Norte 0 989 0.3 76
2017-09-09 14:00:00 16.1 15 Norte 29 Norte 0 989.1 0.4 81
2017-09-09 13:00:00 15.8 22 Norte 35 Norte 0 989.2 0.8 80
2017-09-09 12:00:00 15.4 23 Norte 39 Norte 0 988.7 0.5 79
2017-09-09 11:00:00 13.8 22 Norte 58 Norte 0 988.7 0.8 89
2017-09-09 10:00:00 14.6 14 Norte 31 Noroeste 0 988.4 0.9 87
2017-09-09 09:00:00 13.7 15 Norte 69 Norte 0 988.2 0.6 89
2017-09-09 08:00:00 15.1 27 Norte 44 Norte 0 987.9 0.1 84
2017-09-09 07:00:00 15.1 25 Norte 43 Norte 0 987.5 -0.3 79
2017-09-09 06:00:00 14.8 31 Norte 52 Norte 0 987.6 -0.5 86
2017-09-09 05:00:00 15.3 28 Norte 47 Norte 0 987.8 -0.4 88
2017-09-09 04:00:00 15.5 26 Norte 46 Norte 0 987.8 -0.6 87
2017-09-09 03:00:00 15.6 26 Norte 42 Norte 0 988.1 -0.4 89
2017-09-09 02:00:00 15.7 29 Norte 45 Norte 0 988.2 -0.6 93
2017-09-09 01:00:00 16.2 20 Noroeste 39 Noroeste 0 988.4 -0.4 92
2017-09-09 00:00:00 15.8 19 Norte 42 Noroeste 0 988.5 0 92
2017-09-08 23:00:00 16.3 18 Noroeste 48 Norte 0 988.8 -0.1 93
2017-09-08 22:00:00 16.3 13 Noroeste 45 Noroeste 0 988.8 -0.5 93
2017-09-08 21:00:00 16.6 18 Noroeste 39 Norte 0 988.5 -0.8 91
2017-09-08 20:00:00 16.4 15 Noroeste 40 Norte 0 988.9 -0.5 92
2017-09-08 19:00:00 17.5 14 Noroeste 26 Noroeste 0 989.3 -0.6 83
2017-09-08 18:00:00 17.8 14 Noroeste 36 Noroeste 0 989.3 -0.7 83
2017-09-08 17:00:00 20 15 Noroeste 23 Noroeste 0 989.4 -0.9 68
2017-09-08 16:00:00 20 13 Noroeste 21 Noroeste 0 989.9 -1.1 67
2017-09-08 15:00:00 18.5 13 Norte 19 Norte 0 990 -1.1 72
2017-09-08 14:00:00 18.8 9 Norte 28 Norte 0 990.3 -0.7 72
2017-09-08 13:00:00 17.1 18 Norte 29 Norte 0 991 0.1 78
2017-09-08 12:00:00 16.9 15 Norte 23 Norte 0 991.1 0.3 73
2017-09-08 11:00:00 17 16 Norte 25 Norte 0 991 -- 74
2017-09-08 10:00:00 16.7 13 Nordeste 33 Nordeste 0 990.9 0.5 74
2017-09-08 09:00:00 15.6 26 Nordeste -- -- -- 990.8 0.4 77
2017-09-08 08:00:00 -- -- -- -- -- -- -- -- --
2017-09-08 07:00:00 14.7 33 Nordeste 42 Nordeste 0 990.4 -0.7 76
2017-09-08 06:00:00 14.5 32 Nordeste 49 Nordeste 0 990.4 -1.5 77
2017-09-08 05:00:00 14.5 36 Nordeste 47 Nordeste 0 990.5 -1.8 77
2017-09-08 04:00:00 14.3 38 Nordeste 49 Nordeste 0 991.1 -1.6 78
2017-09-08 03:00:00 13.9 29 Nordeste 47 Nordeste 0 991.9 -1.1 81
2017-09-08 02:00:00 14.4 34 Nordeste 56 Nordeste 0 992.3 -0.7 79
2017-09-08 01:00:00 14.3 36 Nordeste 53 Nordeste 0 992.7 -0.2 81
2017-09-08 00:00:00 14.2 34 Nordeste 46 Nordeste 0 993 0.4 79
2017-09-07 23:00:00 14.5 35 Nordeste 57 Nordeste 0 993 0.3 79
2017-09-07 22:00:00 14.6 34 Nordeste 52 Nordeste 0 992.9 0.6 79
2017-09-07 21:00:00 15.2 33 Nordeste 60 Nordeste 0 992.6 0 76
2017-09-07 20:00:00 16.2 40 Nordeste 62 Nordeste 0 992.7 -0.2 71
2017-09-07 19:00:00 17.3 36 Nordeste 57 Nordeste 0 992.3 -1.2 67
2017-09-07 18:00:00 17.8 39 Nordeste 66 Nordeste 0 992.6 -1.3 66
2017-09-07 17:00:00 17.5 40 Nordeste 69 Norte 0 992.9 -1.3 68
2017-09-07 16:00:00 18 36 Nordeste 57 Nordeste 0 993.5 -1.2 68
2017-09-07 15:00:00 19 33 Nordeste 56 Nordeste 0 993.9 -1.4 63
2017-09-07 14:00:00 19.1 30 Nordeste 50 Nordeste 0 994.2 -1 64
2017-09-07 13:00:00 19.3 32 Nordeste 53 Nordeste 0 994.7 -0.5 62
2017-09-07 12:00:00 18 26 Nordeste 59 Nordeste 0 995.3 0.2 68
2017-09-07 11:00:00 16.9 34 Nordeste 64 Nordeste 0 995.2 0.5 72
2017-09-07 10:00:00 15.7 37 Nordeste 55 Nordeste 0 995.2 0.7 78
2017-09-07 09:00:00 14.7 33 Nordeste 55 Nordeste 0 995.1 0.6 84
2017-09-07 08:00:00 14.4 33 Nordeste 53 Nordeste 0 994.7 0.3 85
2017-09-07 07:00:00 14.6 30 Nordeste 59 Nordeste 0 994.5 -0.5 85
2017-09-07 06:00:00 14.8 32 Nordeste 73 Nordeste 0 994.5 -1.1 85
2017-09-07 05:00:00 15 40 Nordeste 70 Nordeste 0 994.4 -1.6 86
2017-09-07 04:00:00 14.9 38 Nordeste 62 Nordeste 0 995 -1.3 86
2017-09-07 03:00:00 14.9 32 Nordeste 63 Nordeste 0 995.6 -1.1 86
2017-09-07 02:00:00 15 38 Nordeste 73 Nordeste 0 996 -0.9 86
2017-09-07 01:00:00 15.3 43 Nordeste 75 Nordeste 0 996.3 -0.3 85
2017-09-07 00:00:00 15.2 34 Nordeste 60 Nordeste 0 996.7 0.9 85
2017-09-06 23:00:00 15.5 34 Nordeste 62 Nordeste 0 996.9 0.6 85
2017-09-06 22:00:00 15.8 36 Nordeste 73 Nordeste 0 996.6 0.4 84
2017-09-06 21:00:00 16 46 Nordeste 66 Nordeste 0 995.8 -0.7 84
2017-09-06 20:00:00 17.2 34 Nordeste 49 Norte 0 996.3 -0.7 79
2017-09-06 19:00:00 18.4 33 Nordeste 53 Nordeste 0 996.2 -1.4 74
2017-09-06 18:00:00 19.7 28 Nordeste 51 Nordeste 0 996.5 -1.5 68
2017-09-06 17:00:00 19.7 29 Nordeste 55 Norte 0 997 -1.4 67
2017-09-06 16:00:00 19.4 28 Nordeste 55 Norte 0 997.6 -1.3 69
2017-09-06 15:00:00 19.6 28 Nordeste 50 Norte 0 998 -1.1 67
2017-09-06 14:00:00 19.4 29 Nordeste 58 Nordeste 0 998.4 -1.1 68
2017-09-06 13:00:00 18.9 28 Nordeste 51 Nordeste 0 998.9 -0.6 70
2017-09-06 12:00:00 18.4 26 Nordeste 54 Nordeste 0 999.1 -0.3 69
2017-09-06 11:00:00 17.6 19 Nordeste 44 Nordeste 0 999.5 0.5 73
2017-09-06 10:00:00 16.1 23 Nordeste 45 Nordeste 0 999.5 0.9 82
2017-09-06 09:00:00 14.9 28 Nordeste 42 Nordeste 0 999.4 1 85
2017-09-06 08:00:00 14.5 23 Nordeste 42 Este 0 999 0.5 87
2017-09-06 07:00:00 14.6 24 Nordeste 49 Nordeste 0 998.6 -0.1 86
2017-09-06 06:00:00 14.8 31 Nordeste 52 Nordeste 0 998.4 -0.5 84
2017-09-06 05:00:00 15 33 Nordeste 53 Nordeste 0 998.5 -0.4 84
2017-09-06 04:00:00 15.2 33 Nordeste 55 Nordeste 0 998.7 -0.3 86
2017-09-06 03:00:00 15.2 30 Nordeste 58 Nordeste 0 998.9 -0.2 90
2017-09-06 02:00:00 15.5 39 Nordeste 54 Nordeste 0 998.9 0 88
2017-09-06 01:00:00 15.3 36 Nordeste 48 Nordeste 0 999 0.5 89
2017-09-06 00:00:00 15.6 33 Nordeste 51 Nordeste 0 999.1 1.2 87
2017-09-05 23:00:00 15.8 35 Nordeste 51 Nordeste 0 998.9 1.3 87
2017-09-05 22:00:00 16.1 37 Nordeste 58 Nordeste 0.2 998.5 1.3 86
2017-09-05 21:00:00 16.8 32 Nordeste 50 Nordeste 0 997.9 0.7 85
2017-09-05 20:00:00 17.8 29 Nordeste 49 Nordeste 0 997.6 0.2 85
2017-09-05 19:00:00 18.7 31 Nordeste 46 Nordeste 0 997.2 -0.4 83
2017-09-05 18:00:00 17.2 29 Nordeste 40 Norte 0 997.2 -0.3 94
2017-09-05 17:00:00 18 16 Norte 26 Norte 0 997.4 0.2 93
2017-09-05 16:00:00 18.7 7 Norte 14 Oeste 0 997.6 0.4 85
2017-09-05 15:00:00 19.7 10 Oeste 17 Oeste 0 997.5 0.6 78
2017-09-05 14:00:00 20.5 9 Sur 15 Sudoeste 0 997.2 0.9 76
2017-09-05 13:00:00 20.2 6 Sur 16 Sur 0 997.2 1.7 80
2017-09-05 12:00:00 19.3 8 Sur 13 Sur 0 996.9 2.1 83
2017-09-05 11:00:00 18.5 6 Sur 12 Sudoeste 0 996.3 1.9 85
2017-09-05 10:00:00 17 5 Sur 12 Sur 0 995.5 1.4 92
2017-09-05 09:00:00 16.6 10 Sur 12 Sur 0 994.8 0.9 94
2017-09-05 08:00:00 16.2 8 Oeste 18 Noroeste 0 994.4 0.4 94
2017-09-05 07:00:00 16.6 10 Oeste 16 Noroeste 0 994.1 -0.1 94
2017-09-05 06:00:00 16.6 6 Oeste 13 Oeste 0.2 993.9 -0.6 94
2017-09-05 05:00:00 16.8 5 Sudoeste 10 Oeste 0.2 994 0 94
2017-09-05 04:00:00 16.7 7 Oeste 16 Oeste 0 994.2 0.1 93
2017-09-05 03:00:00 16.9 12 Oeste 23 Noroeste 0 994.5 0.5 92
2017-09-05 02:00:00 16.8 5 Sudoeste 16 Oeste 0 994 0.5 93
2017-09-05 01:00:00 17 6 Oeste 19 Noroeste 0 994.1 1 94
2017-09-05 00:00:00 17.2 8 Noroeste 16 Noroeste 0 994 1.6 94
2017-09-04 23:00:00 17 11 Noroeste 21 Oeste 0 993.5 1.4 93
2017-09-04 22:00:00 17 12 Oeste 16 Oeste 0 993.1 1.2 92
2017-09-04 21:00:00 17.9 8 Sudoeste 13 Sudoeste 0 992.4 0.2 87
2017-09-04 20:00:00 19.8 7 Sudoeste 13 Sudoeste 0 992.1 -0.2 85
2017-09-04 19:00:00 18.4 8 Sur 16 Sudoeste 0 991.9 -0.6 87
2017-09-04 18:00:00 19.8 13 Sudoeste 16 Sudoeste 0 992.2 -0.3 83
2017-09-04 17:00:00 20.1 9 Sur 17 Sudoeste 0 992.3 0.1 82
2017-09-04 16:00:00 19.7 7 Sur 12 Sur 0 992.5 0.2 90
2017-09-04 15:00:00 18.8 7 Sur 13 Sur 0 992.5 0.8 91
2017-09-04 14:00:00 19.1 6 Sur 13 Sudoeste 0 992.2 1.2 92
2017-09-04 13:00:00 18.9 9 Sudoeste 13 Sudoeste 0 992.3 2 94
2017-09-04 12:00:00 18.4 5 Sudoeste 10 Oeste 0 991.7 1.9 95
2017-09-04 11:00:00 17.6 8 Oeste 11 Oeste 0 991 1.8 95
2017-09-04 10:00:00 17.8 5 Sudoeste 12 Oeste 0 990.3 1.3 95
2017-09-04 09:00:00 17.1 10 Oeste 14 Oeste 0 989.8 1 95
2017-09-04 08:00:00 16.9 6 Sudoeste 14 Oeste 0 989.2 0.2 95
2017-09-04 07:00:00 17.1 9 Oeste 19 Oeste 0 989 0 95
2017-09-04 06:00:00 17 9 Noroeste 24 Noroeste 0 988.8 -0.2 95
2017-09-04 05:00:00 17.2 12 Noroeste 24 Noroeste 0 989 0 95
2017-09-04 04:00:00 17.3 14 Noroeste 40 Noroeste 0 989 0.1 94
2017-09-04 03:00:00 17.2 17 Noroeste 33 Norte 0.2 989 0.1 94
2017-09-04 02:00:00 17.2 17 Noroeste 41 Oeste 0 989 0.4 94
2017-09-04 01:00:00 17.2 22 Oeste 35 Noroeste 0 988.9 0.8 95
2017-09-04 00:00:00 17.6 19 Noroeste 37 Noroeste 0 988.9 0.9 95
2017-09-03 23:00:00 17.7 22 Noroeste 43 Noroeste 0.2 988.6 0.6 95
2017-09-03 22:00:00 18.3 34 Oeste 51 Oeste 0.6 988.1 0.2 95
2017-09-03 21:00:00 17.5 23 Oeste 37 Sudoeste 0 988 -0.2 94
2017-09-03 20:00:00 16.7 32 Sudoeste 49 Sudoeste 0 988 -0.4 94
2017-09-03 19:00:00 16.3 34 Sudoeste 51 Sudoeste 0.2 987.9 -1.2 94
2017-09-03 18:00:00 16.3 35 Sudoeste 48 Sudoeste 2 988.2 -1.5 93
2017-09-03 17:00:00 16.9 37 Sudoeste 46 Sudoeste 0.4 988.4 -1.8 93
2017-09-03 16:00:00 17.3 30 Sudoeste 40 Sudoeste 0.2 989.1 -1.5 93
2017-09-03 15:00:00 18.1 26 Sudoeste 31 Sudoeste 0 989.7 -0.9 91
2017-09-03 14:00:00 17.8 19 Sudoeste 28 Sudoeste 0 990.2 -0.2 92
2017-09-03 13:00:00 17.8 15 Sudoeste 27 Sudoeste 0.2 990.6 0.5 93
2017-09-03 12:00:00 17.5 16 Sudoeste 27 Oeste 0 990.6 0.5 93
2017-09-03 11:00:00 17.4 13 Sudoeste 25 Oeste 0 990.4 0 93
2017-09-03 10:00:00 16.7 7 Sudoeste 18 Oeste 0 990.1 -0.2 90
2017-09-03 09:00:00 16.6 11 Oeste 21 Noroeste 0 990.1 -0.7 86
2017-09-03 08:00:00 16.4 8 Oeste 18 Norte 0 990.4 -0.7 69
2017-09-03 07:00:00 15.7 13 Norte 20 Norte 0 990.3 -1.6 73
2017-09-03 06:00:00 16.7 18 Norte 23 Norte 0 990.8 -1.3 53
2017-09-03 05:00:00 15.1 21 Nordeste 30 Norte 0 991.1 -1.5 89
2017-09-03 04:00:00 15.6 24 Nordeste 28 Nordeste 0 991.9 -1 84
2017-09-03 03:00:00 17 21 Nordeste 33 Nordeste 0 992.1 -1.3 54
2017-09-03 02:00:00 15.9 26 Nordeste 43 Nordeste 0 992.6 -0.8 82
2017-09-03 01:00:00 16.1 30 Norte 45 Norte 0 992.9 -0.4 78
2017-09-03 00:00:00 16.1 26 Norte 41 Norte 0 993.4 0 73
2017-09-02 23:00:00 16.7 29 Nordeste 42 Nordeste 0 993.4 -0.1 65
2017-09-02 22:00:00 16.9 29 Nordeste 35 Nordeste 0 993.3 -0.5 60
2017-09-02 21:00:00 16.9 23 Nordeste 30 Nordeste 0 993.4 -0.5 63
2017-09-02 20:00:00 18.2 22 Nordeste 31 Nordeste 0 993.5 -0.7 58
2017-09-02 19:00:00 20.1 13 Nordeste 22 Nordeste 0 993.8 -0.9 49
2017-09-02 18:00:00 20.7 10 Norte 16 Norte 0 993.9 -1.2 51
2017-09-02 17:00:00 20.2 6 Norte 13 Norte 0 994.2 -1.1 51
2017-09-02 16:00:00 22.1 4 Noroeste 14 Sudoeste 0 994.7 -1 46
2017-09-02 15:00:00 21.9 7 Sudoeste 14 Sudoeste 0 995.1 -0.4 45
2017-09-02 14:00:00 19.7 7 Norte 21 Norte 0 995.3 -0.2 56
2017-09-02 13:00:00 20.6 12 Oeste 22 Sur 0 995.7 0.3 53
2017-09-02 12:00:00 20.7 6 Sur 24 Este 0 995.5 0.7 53
2017-09-02 11:00:00 18.2 18 Este 37 Este 0 995.5 0.1 60
2017-09-02 10:00:00 15.5 23 Este 39 Este 0 995.4 -0.2 67
2017-09-02 09:00:00 14.7 30 Este 55 Este 0 994.8 -1.2 67
2017-09-02 08:00:00 13.2 24 Este 44 Este 0 995.4 -1 78
2017-09-02 07:00:00 13.1 23 Nordeste 43 Nordeste 0 995.6 -1.4 82
2017-09-02 06:00:00 13.3 23 Nordeste 51 Nordeste 0 996 -1.4 85
2017-09-02 05:00:00 13.5 27 Nordeste 52 Nordeste 0 996.4 -1.4 84
2017-09-02 04:00:00 13.9 29 Nordeste 46 Nordeste 0 997 -1.2 83
2017-09-02 03:00:00 14 28 Nordeste 41 Nordeste 0 997.4 -1.1 86
2017-09-02 02:00:00 14.2 27 Nordeste 40 Nordeste 0 997.8 -0.6 85
2017-09-02 01:00:00 14.7 24 Nordeste 40 Nordeste 0 998.2 0.4 82
2017-09-02 00:00:00 14.9 21 Nordeste 39 Nordeste 0 998.5 1.4 81
2017-09-01 23:00:00 15.2 24 Nordeste 42 Nordeste 0 998.4 1.8 79
2017-09-01 22:00:00 15.6 23 Nordeste 43 Nordeste 0 997.8 1 78
2017-09-01 21:00:00 16.4 32 Nordeste 51 Nordeste 0 997.1 0.8 73
2017-09-01 20:00:00 17.9 32 Nordeste 57 Nordeste 0 996.6 0.3 65
2017-09-01 19:00:00 18.7 30 Nordeste 64 Nordeste 0 996.8 0.1 62
2017-09-01 18:00:00 19.3 35 Nordeste 63 Norte 0 996.3 -0.5 57
2017-09-01 17:00:00 18.7 38 Norte 59 Norte 0 996.3 -0.8 66
2017-09-01 16:00:00 18.2 36 Norte 56 Norte 0 996.7 -0.8 71
2017-09-01 15:00:00 18.1 34 Norte 58 Norte 0 996.8 -0.7 71
2017-09-01 14:00:00 17.5 33 Norte 51 Norte 0 997.1 -0.4 75
2017-09-01 13:00:00 18.1 30 Nordeste 54 Nordeste 0 997.5 0.3 70
2017-09-01 12:00:00 17.4 32 Norte 46 Norte 0 997.5 0.7 75
2017-09-01 11:00:00 17.2 19 Nordeste 36 Nordeste 0 997.5 1.1 74
2017-09-01 10:00:00 16.2 22 Nordeste 37 Nordeste 0 997.2 1.2 78
2017-09-01 09:00:00 15.1 25 Nordeste 37 Nordeste 0 996.8 0.9 81
2017-09-01 08:00:00 14.4 27 Nordeste 44 Nordeste 0 996.4 0.4 81
2017-09-01 07:00:00 14.2 29 Nordeste 41 Nordeste 0 996 -0.2 79
2017-09-01 06:00:00 14.3 30 Nordeste 41 Nordeste 0 995.9 -0.6 78
2017-09-01 05:00:00 14.1 28 Nordeste 43 Nordeste 0 996 -0.4 78
2017-09-01 04:00:00 14 27 Nordeste 37 Nordeste 0 996.2 -0.4 80
2017-09-01 03:00:00 14 25 Nordeste 37 Este 0 996.5 0 80
2017-09-01 02:00:00 13.9 25 Nordeste 37 Nordeste 0 996.4 0 82
2017-09-01 01:00:00 14 24 Nordeste 38 Nordeste 0 996.6 1.2 81
2017-09-01 00:00:00 14.3 26 Nordeste 40 Nordeste 0 996.5 1.9 80
2017-08-31 23:00:00 14.7 25 Nordeste 56 Nordeste 0 996.4 1.9 79
2017-08-31 22:00:00 15.4 44 Nordeste 60 Nordeste 0 995.4 1.1 76
2017-08-31 21:00:00 16 41 Nordeste 66 Nordeste 0 994.6 0.5 74
2017-08-31 20:00:00 17.2 45 Nordeste 75 Nordeste 0 994.5 0.3 67
2017-08-31 19:00:00 17.9 38 Norte 65 Nordeste 0 994.3 -0.2 63
2017-08-31 18:00:00 17.6 41 Norte 72 Norte 0 994.1 -0.7 67
2017-08-31 17:00:00 17.8 39 Norte 63 Nordeste 0 994.2 -0.8 66
2017-08-31 16:00:00 18.5 35 Norte 62 Nordeste 0 994.5 -1 59
2017-08-31 15:00:00 19 34 Norte 54 Nordeste 0 994.8 -0.5 56
2017-08-31 14:00:00 18.2 33 Norte 53 Nordeste 0 995 0.1 59
2017-08-31 13:00:00 18.4 24 Nordeste 48 Nordeste 0 995.5 0.9 61
2017-08-31 12:00:00 18 24 Nordeste 60 Nordeste 0 995.3 1 62
2017-08-31 11:00:00 17 28 Nordeste 49 Nordeste 0 994.9 0.9 69
2017-08-31 10:00:00 15.5 27 Nordeste 46 Nordeste 0 994.6 1 76
2017-08-31 09:00:00 14.8 32 Nordeste 53 Nordeste 0 994.3 0.7 78
2017-08-31 08:00:00 13.9 30 Nordeste 55 Nordeste 0 994 0.4 83
2017-08-31 07:00:00 14.2 30 Nordeste 48 Nordeste 0 993.6 0.1 82
2017-08-31 06:00:00 14.1 29 Nordeste 48 Este 0 993.6 0.4 83
2017-08-31 05:00:00 14.3 32 Nordeste 52 Nordeste 0 993.6 0.3 83
2017-08-31 04:00:00 13.9 29 Nordeste 48 Nordeste 0 993.5 0.1 88
2017-08-31 03:00:00 13.8 28 Nordeste 46 Nordeste 0 993.2 0.4 89
2017-08-31 02:00:00 14.4 31 Nordeste 49 Nordeste 0 993.3 0.5 88
2017-08-31 01:00:00 14.1 26 Nordeste 51 Nordeste 0 993.4 1 89
2017-08-31 00:00:00 14.6 28 Este 51 Nordeste 0 992.8 1.2 87
2017-08-30 23:00:00 14.3 24 Nordeste 40 Nordeste 0 992.8 1.7 88
2017-08-30 22:00:00 14.8 21 Nordeste 42 Nordeste 0 992.4 1.5 83
2017-08-30 21:00:00 15.5 26 Nordeste 49 Nordeste 0 991.6 1 83
2017-08-30 20:00:00 16.4 24 Nordeste 44 Nordeste 0 991.1 0.8 83
2017-08-30 19:00:00 17.4 24 Nordeste 45 Nordeste 0 990.9 0.7 77
2017-08-30 18:00:00 17.7 26 Norte 48 Norte 0 990.6 0.4 79
2017-08-30 17:00:00 17.7 26 Nordeste 45 Norte 0 990.3 0.2 81
2017-08-30 16:00:00 17.4 32 Norte 49 Norte 0 990.2 0.1 84
2017-08-30 15:00:00 16.5 29 Norte 45 Norte 0 990.2 0.6 88
2017-08-30 14:00:00 16.8 24 Norte 39 Norte 0.2 990.1 0.7 85
2017-08-30 13:00:00 17.8 27 Nordeste 41 Norte 0 990.1 1.2 82
2017-08-30 12:00:00 16.5 29 Nordeste 45 Norte 0 989.6 1 90
2017-08-30 11:00:00 15.7 32 Norte 58 Norte 0 989.4 0.9 94
2017-08-30 10:00:00 15.7 35 Nordeste 51 Nordeste 0 988.9 0.8 95
2017-08-30 09:00:00 15.9 28 Norte 45 Norte 0 988.6 0.3 95
2017-08-30 08:00:00 16.6 22 Nordeste 32 Nordeste 0 988.5 0.7 95
2017-08-30 07:00:00 16.6 21 Nordeste 37 Nordeste 0 988.1 -0.1 95
2017-08-30 06:00:00 16.5 29 Nordeste 37 Nordeste 0 988.3 0.2 94
2017-08-30 05:00:00 16.3 23 Nordeste 35 Nordeste 0 987.8 -1 94
2017-08-30 04:00:00 16.5 19 Nordeste 35 Nordeste 0 988.2 -1 93
2017-08-30 03:00:00 16.8 27 Nordeste 40 Este 0 988.1 -1 93
2017-08-30 02:00:00 16.9 21 Nordeste 32 Nordeste 0 988.8 -0.3 93
2017-08-30 01:00:00 17.1 21 Nordeste 38 Nordeste 0 989.2 0.8 93
2017-08-30 00:00:00 17 27 Nordeste 48 Nordeste 0 989.1 1.5 93
2017-08-29 23:00:00 17.1 27 Nordeste 43 Nordeste 0 989.1 1.7 94
2017-08-29 22:00:00 17 25 Nordeste 48 Nordeste 0 988.4 1 95
2017-08-29 21:00:00 17.2 22 Nordeste 49 Este 0 987.6 0.1 94
2017-08-29 20:00:00 17.5 29 Nordeste 57 Nordeste 0 987.4 -0.2 95
2017-08-29 19:00:00 17.5 38 Nordeste 58 Norte 0 987.4 -0.6 95
2017-08-29 18:00:00 16.7 32 Nordeste 46 Nordeste 0 987.5 -0.3 95
2017-08-29 17:00:00 17.7 26 Nordeste 43 Norte 0 987.6 -0.4 95
2017-08-29 16:00:00 17.7 31 Nordeste 46 Nordeste 0 988 -0.3 95
2017-08-29 15:00:00 17.5 30 Nordeste 46 Norte 0 987.8 -0.4 95
2017-08-29 14:00:00 17.3 30 Nordeste 42 Nordeste 0 988 0.1 95
2017-08-29 13:00:00 17.1 22 Nordeste 34 Nordeste 0 988.3 0.4 93
2017-08-29 12:00:00 18.1 23 Nordeste 37 Nordeste 0 988.2 0.4 94
2017-08-29 11:00:00 17.7 25 Nordeste 44 Nordeste 0 987.9 0.4 95
2017-08-29 10:00:00 17.3 30 Nordeste 48 Nordeste 0 987.9 0.6 95
2017-08-29 09:00:00 17.5 26 Nordeste 40 Nordeste 0 987.8 0.4 95
2017-08-29 08:00:00 17.4 27 Nordeste 41 Norte 0 987.5 0.3 94
2017-08-29 07:00:00 17.3 22 Nordeste 32 Norte 0 987.3 0.2 93
2017-08-29 06:00:00 17.8 22 Nordeste 46 Nordeste 0 987.4 0 94
2017-08-29 05:00:00 17.5 27 Nordeste 59 Norte 0 987.2 -0.8 94
2017-08-29 04:00:00 17.7 25 Norte 42 Nordeste 0 987.1 -1 94
2017-08-29 03:00:00 17.9 31 Nordeste 42 Nordeste 0 987.4 -0.5 93
2017-08-29 02:00:00 18.1 26 Nordeste 40 Nordeste 0 988 0.5 90
2017-08-29 01:00:00 18 30 Nordeste 41 Nordeste 0 988.1 0.6 90
2017-08-29 00:00:00 17.9 36 Nordeste 46 Nordeste 0 987.9 0.5 91
2017-08-28 23:00:00 17.6 22 Nordeste 30 Nordeste 0 987.5 0.6 90
2017-08-28 22:00:00 17.7 18 Nordeste 33 Nordeste 0 987.5 1.1 87
2017-08-28 21:00:00 18.4 20 Nordeste 36 Nordeste 0 987.4 0.5 87
2017-08-28 20:00:00 19.2 26 Nordeste 53 Norte 0 986.9 0.3 84
2017-08-28 19:00:00 20.2 26 Norte 42 Norte 0 986.4 -0.5 81
2017-08-28 18:00:00 18.6 27 Nordeste 48 Norte 0 986.9 -0.3 88
2017-08-28 17:00:00 19.5 41 Norte 59 Norte 0 986.6 -0.5 85
2017-08-28 16:00:00 19.6 22 Nordeste 34 Norte 0 986.9 -0.3 79
2017-08-28 15:00:00 22.1 10 Norte 19 Nordeste 0 987.2 0.1 72
2017-08-28 14:00:00 21.9 10 Norte 22 Nordeste 0 987.1 -0.3 73
2017-08-28 13:00:00 19.9 12 Nordeste 24 Norte 0 987.2 0 80
2017-08-28 12:00:00 18.4 13 Norte 21 Nordeste 0 987.1 0.3 87
2017-08-28 11:00:00 18.3 5 Nordeste 21 Nordeste 0 987.4 1 92
2017-08-28 10:00:00 17.3 17 Nordeste 22 Nordeste 0 987.2 1.1 93
2017-08-28 09:00:00 17.3 13 Nordeste 21 Nordeste 0 986.8 0.6 92
2017-08-28 08:00:00 17.8 10 Este 19 Este 0 986.4 0.2 81
2017-08-28 07:00:00 17.8 16 Este 36 Este 0 986.1 0.1 85
2017-08-28 06:00:00 17.4 24 Nordeste 40 Nordeste 0 986.2 0 93
2017-08-28 05:00:00 17.4 31 Nordeste 40 Nordeste 0 986.2 -0.4 94
2017-08-28 04:00:00 16.7 30 Nordeste 37 Nordeste 0 986 -1 93
2017-08-28 03:00:00 16.9 16 Nordeste 22 Norte 0 986.2 -0.7 90
2017-08-28 02:00:00 16.7 12 Norte 14 Norte 0 986.6 -0.2 93
2017-08-28 01:00:00 16.7 4 Norte 9 Noroeste 0 987 1.1 93
2017-08-28 00:00:00 16.9 5 Sudoeste 9 Norte 0 986.9 1.1 93
2017-08-27 23:00:00 16.8 3 Sudeste 24 Sur 0 986.8 0.8 94
2017-08-27 22:00:00 17.1 15 Sur 21 Sur 0 985.9 0 92
2017-08-27 21:00:00 18.2 12 Sur 17 Sur 0 985.8 0.5 86
2017-08-27 20:00:00 19.1 4 Sudeste 14 Sur 0 986 0.7 82
2017-08-27 19:00:00 18.8 5 Este 12 Este 0 985.9 0.4 86
2017-08-27 18:00:00 20.2 3 Oeste 14 Sudoeste 0 985.3 -0.5 81
2017-08-27 17:00:00 20.6 9 Sudoeste 25 Sudoeste 0 985.3 -0.4 81
2017-08-27 16:00:00 20.3 15 Sudoeste 27 Sudoeste 0 985.5 0 81
2017-08-27 15:00:00 19.9 14 Sur 31 Sur 0 985.8 0.2 79
2017-08-27 14:00:00 20.4 15 Sur 28 Sudoeste 0 985.7 0.5 78
2017-08-27 13:00:00 19.8 15 Sur 25 Sur 0 985.5 0.4 83
2017-08-27 12:00:00 18.4 9 Sudeste 18 Sur 0 985.6 0.6 93
2017-08-27 11:00:00 16.8 10 Sudeste 23 Sudeste 0 985.2 1 95
2017-08-27 10:00:00 15.8 13 Sudeste 26 Sudeste 0 985.1 1.2 95
2017-08-27 09:00:00 15.8 16 Sur 31 Sur 0 985 1.5 95
2017-08-27 08:00:00 15.8 21 Sur 32 Sur 0.2 984.2 0.4 95
2017-08-27 07:00:00 16.1 25 Sur 35 Sur 0 983.9 -0.5 95
2017-08-27 06:00:00 16.2 30 Sudeste 38 Sudeste 0 983.5 -0.9 95
2017-08-27 05:00:00 16.1 23 Sudeste 35 Sudeste 0 983.8 -0.8 95
2017-08-27 04:00:00 16.4 15 Sudeste 26 Sudeste 0 984.4 -0.5 94
2017-08-27 03:00:00 17.1 9 Norte 26 Norte 0 984.4 -0.8 95
2017-08-27 02:00:00 17.6 22 Nordeste 33 Norte 0 984.6 -1 95
2017-08-27 01:00:00 17.4 26 Norte 36 Norte 0 984.9 -0.4 94
2017-08-27 00:00:00 17.6 26 Nordeste 30 Nordeste 0 985.2 0.4 89
2017-08-26 23:00:00 18.3 18 Nordeste 29 Nordeste 0 985.6 1 81
2017-08-26 22:00:00 18.5 23 Nordeste 36 Nordeste 0 985.3 0 78
2017-08-26 21:00:00 18.5 27 Nordeste 45 Norte 0 984.8 -0.6 82
2017-08-26 20:00:00 19.4 29 Norte 44 Nordeste 0 984.6 -0.8 76
2017-08-26 19:00:00 20 23 Norte 32 Norte 0 985.3 -0.3 76
2017-08-26 18:00:00 21.6 10 Norte 19 Norte 0 985.4 -0.4 71
2017-08-26 17:00:00 22.7 6 Noroeste 22 Oeste 0 985.4 -0.4 67
2017-08-26 16:00:00 24.2 11 Sudoeste 22 Sur 0 985.6 -0.9 63
2017-08-26 15:00:00 22.9 11 Sur 24 Sur 0 985.8 -1 66
2017-08-26 14:00:00 23 15 Sudeste 27 Sur 0 985.8 -1 66
2017-08-26 13:00:00 22 13 Sudeste 26 Sur 0 986.5 0 72
2017-08-26 12:00:00 19.6 19 Sur 30 Sur 0 986.8 0.5 82
2017-08-26 11:00:00 17.4 19 Sur 27 Sur 0.2 986.8 0.8 88
2017-08-26 10:00:00 17.6 20 Sur 29 Sur 0 986.5 0.8 86
2017-08-26 09:00:00 17.2 26 Sur 38 Sur 0 986.3 0.4 83
2017-08-26 08:00:00 17 23 Sur 31 Sur 0 986 0 86
2017-08-26 07:00:00 16.7 25 Sur 33 Sur 0.2 985.7 -0.7 85
2017-08-26 06:00:00 16.8 20 Sur 30 Sur 0 985.9 -0.8 80
2017-08-26 05:00:00 17.1 22 Sur 35 Sur 0 986 -1.2 81
2017-08-26 04:00:00 17.1 21 Sur 31 Sur 0 986.4 -0.9 83
2017-08-26 03:00:00 17.2 21 Sur 31 Sur 0 986.7 -1.1 83
2017-08-26 02:00:00 17.3 19 Sur 33 Sudeste 0 987.2 -1 83
2017-08-26 01:00:00 17.4 22 Sur 36 Sudeste 0 987.3 -0.9 85
2017-08-26 00:00:00 17.2 27 Sur 34 Sur 0 987.8 0 90
2017-08-25 23:00:00 17.1 21 Sur 33 Sur 0 988.2 0 89
2017-08-25 22:00:00 17 24 Sur 35 Sur 0 988.2 -0.3 90
2017-08-25 21:00:00 17.1 17 Sur 30 Sur 0 987.8 -0.7 88
2017-08-25 20:00:00 18 19 Sur 35 Sur 0 988.2 -0.1 85
2017-08-25 19:00:00 18 15 Sur 36 Sudoeste 0 988.5 -0.3 82
2017-08-25 18:00:00 19 16 Sur 32 Sur 0 988.5 -0.8 77
2017-08-25 17:00:00 18.4 24 Sur 44 Sur 0 988.3 -1.1 75
2017-08-25 16:00:00 17.4 19 Sur 32 Sur 0 988.8 -0.9 85
2017-08-25 15:00:00 16.6 17 Sur 31 Sur 0 989.3 -0.2 87
2017-08-25 14:00:00 16.8 16 Sur 31 Sur 0 989.4 0.1 86
2017-08-25 13:00:00 16.4 22 Sur 31 Sur 0 989.7 0.5 93
2017-08-25 12:00:00 16 21 Sur 31 Sur 0 989.5 0.3 95
2017-08-25 11:00:00 15.1 20 Sur 34 Sur 0 989.3 0.3 95
2017-08-25 10:00:00 15.2 20 Sur 26 Sudeste 0 989.2 0.4 95
2017-08-25 09:00:00 15.3 17 Sur 22 Sur 0 989.2 0.4 95
2017-08-25 08:00:00 15 13 Sur 15 Sur 0 989 -0.5 94
2017-08-25 07:00:00 15.1 8 Sur 12 Sudeste 0 988.8 -1.1 94
2017-08-25 06:00:00 15.4 8 Sudeste 11 Sudeste 0 988.8 -1.3 94
2017-08-25 05:00:00 15.3 3 Nordeste 9 Norte 0 989.5 -0.9 95
2017-08-25 04:00:00 15.9 5 Norte 12 Nordeste 0 989.9 -0.6 95
2017-08-25 03:00:00 15.6 8 Norte 13 Este 0 990.1 -0.5 95
2017-08-25 02:00:00 16 9 Nordeste 18 Nordeste 0 990.4 -0.5 95
2017-08-25 01:00:00 15.8 14 Este 23 Nordeste 0 990.5 0 95
2017-08-25 00:00:00 15.9 19 Nordeste 25 Nordeste 0 990.6 0.6 95
2017-08-24 23:00:00 15.8 19 Nordeste 28 Nordeste 0 990.9 1 94
2017-08-24 22:00:00 16.1 21 Nordeste 39 Nordeste 0 990.5 0.2 91
2017-08-24 21:00:00 16.9 30 Nordeste 39 Nordeste 0 990 -0.5 85
2017-08-24 20:00:00 18.6 24 Norte 40 Norte 0 989.9 -0.6 75
2017-08-24 19:00:00 18.9 27 Nordeste 46 Nordeste 0 990.3 -0.4 72
2017-08-24 18:00:00 18.8 32 Norte 52 Norte 0 990.5 -0.3 73
2017-08-24 17:00:00 18.7 35 Norte 53 Norte 0 990.5 -0.3 71
2017-08-24 16:00:00 17.2 41 Norte 58 Norte 0 990.7 -0.1 84
2017-08-24 15:00:00 15.9 35 Norte 53 Norte 0 990.8 0.3 95
2017-08-24 14:00:00 15.7 28 Norte 45 Norte 0 990.8 0.1 95
2017-08-24 13:00:00 16 31 Norte 47 Norte 0 990.8 0.6 95
2017-08-24 12:00:00 16.2 33 Norte 48 Norte 0 990.5 0.4 94
2017-08-24 11:00:00 17 27 Nordeste 44 Nordeste 0 990.7 0.9 92
2017-08-24 10:00:00 16.6 24 Nordeste 43 Nordeste 0 990.2 0.7 95
2017-08-24 09:00:00 16.1 28 Nordeste 41 Nordeste 0 990.1 0.6 95
2017-08-24 08:00:00 16.1 28 Nordeste 40 Nordeste 0 989.8 0.1 95
2017-08-24 07:00:00 16.2 28 Nordeste 45 Nordeste 0 989.5 -0.7 95
2017-08-24 06:00:00 16 31 Nordeste 44 Nordeste 0 989.5 -0.5 95
2017-08-24 05:00:00 15.8 30 Nordeste 43 Nordeste 0 989.7 -0.7 95
2017-08-24 04:00:00 16.4 26 Nordeste 44 Nordeste 0 990.2 -0.3 95
2017-08-24 03:00:00 16.5 29 Nordeste 46 Nordeste 0 990 -0.8 95
2017-08-24 02:00:00 16.6 27 Nordeste 44 Nordeste 0 990.4 -0.2 94
2017-08-24 01:00:00 16.7 29 Nordeste 42 Nordeste 0 990.5 0.2 94
2017-08-24 00:00:00 16.8 31 Nordeste 45 Nordeste 0 990.8 0.8 93
2017-08-23 23:00:00 17.4 32 Nordeste 46 Norte 0 990.6 0.7 92
2017-08-23 22:00:00 17.4 31 Nordeste 54 Nordeste 0 990.3 0.5 91
2017-08-23 21:00:00 17.5 31 Nordeste 60 Nordeste 0 990 0.5 91
2017-08-23 20:00:00 18.2 34 Nordeste 52 Nordeste 0 989.9 0.2 87
2017-08-23 19:00:00 17 35 Norte 64 Norte 0 989.8 0 93
2017-08-23 18:00:00 17.2 41 Norte 68 Nordeste 0 989.5 -0.7 93
2017-08-23 17:00:00 16.9 39 Norte 62 Norte 0 989.7 -0.6 93
2017-08-23 16:00:00 17.3 37 Norte 57 Norte 0 989.8 -1.1 92
2017-08-23 15:00:00 18.9 39 Norte 60 Norte 0 990.2 -0.3 80
2017-08-23 14:00:00 18.5 38 Norte 57 Norte 0 990.3 -0.2 82
2017-08-23 13:00:00 20.7 31 Norte 52 Nordeste 0 990.9 0.7 69
2017-08-23 12:00:00 19.2 38 Nordeste 54 Nordeste 0 990.5 0.1 76
2017-08-23 11:00:00 19.8 29 Nordeste 52 Nordeste 0 990.5 0.7 75
2017-08-23 10:00:00 18.1 29 Nordeste 46 Nordeste 0 990.2 0.9 84
2017-08-23 09:00:00 16.8 25 Nordeste 39 Nordeste 0 990.4 0.8 90
2017-08-23 08:00:00 16.3 28 Nordeste 51 Nordeste 0 989.8 -0.2 90
2017-08-23 07:00:00 16.8 36 Nordeste 49 Nordeste 0 989.3 -0.6 89
2017-08-23 06:00:00 16.9 30 Nordeste 45 Nordeste 0 989.6 0 89
2017-08-23 05:00:00 17.1 27 Nordeste 56 Nordeste 0 990 -0.1 89
2017-08-23 04:00:00 17.1 35 Nordeste 57 Nordeste 0 989.9 -0.2 89
2017-08-23 03:00:00 16.9 44 Nordeste 60 Nordeste 0 989.6 -0.8 89
2017-08-23 02:00:00 17 33 Nordeste 45 Nordeste 0 990.1 0.4 90
2017-08-23 01:00:00 17 36 Nordeste 45 Nordeste 0 990.1 -0.1 91
2017-08-23 00:00:00 17.2 34 Nordeste 54 Nordeste 0 990.4 0 91
2017-08-22 23:00:00 17.6 40 Nordeste 56 Nordeste 0 989.7 -1 90
2017-08-22 22:00:00 17.6 40 Nordeste 52 Norte 0 990.2 -0.5 90
2017-08-22 21:00:00 17.7 39 Norte 54 Norte 0 990.4 -0.4 90
2017-08-22 20:00:00 18.4 33 Norte 51 Norte 0 990.7 -0.5 90
2017-08-22 19:00:00 19.2 28 Norte 40 Norte 0 990.7 -0.7 83
2017-08-22 18:00:00 19.6 26 Norte 38 Norte 0 990.8 -0.7 79
2017-08-22 17:00:00 19.4 24 Norte 37 Norte 0 991.2 -0.6 77
2017-08-22 16:00:00 19.6 19 Norte 28 Norte 0 991.4 -0.3 76
2017-08-22 15:00:00 18.6 21 Norte 28 Norte 0 991.5 -0.4 82
2017-08-22 14:00:00 19.1 14 Norte 23 Noroeste 0 991.8 0.1 78
2017-08-22 13:00:00 18.9 12 Norte 17 Norte 0 991.7 0.4 79
2017-08-22 12:00:00 19.2 8 Noroeste 13 Noroeste 0 991.9 1.2 76
2017-08-22 11:00:00 19 6 Noroeste 10 Noroeste 0 991.7 1.5 77
2017-08-22 10:00:00 18.1 5 Norte 12 Norte 0 991.3 1.2 83
2017-08-22 09:00:00 17.6 8 Norte 12 Norte 0 990.7 0.9 85
2017-08-22 08:00:00 16.5 5 Norte 11 Noroeste 0 990.2 0.6 91
2017-08-22 07:00:00 16.9 7 Noroeste 15 Noroeste 0 990.1 0.9 91
2017-08-22 06:00:00 16.9 3 Sudoeste 12 Sudoeste 0 989.8 0.8 93
2017-08-22 05:00:00 16.8 6 Sur 11 Sur 0 989.6 0.6 93
2017-08-22 04:00:00 16.9 9 Sur 15 Sur 0 989.2 0.3 93
2017-08-22 03:00:00 16.9 10 Sur 14 Sudeste 0 989 0.3 94
2017-08-22 02:00:00 17.1 10 Sur 15 Sudoeste 0 989 0.6 94
2017-08-22 01:00:00 17.2 10 Sudoeste 19 Sudoeste 0 988.9 1.3 94
2017-08-22 00:00:00 16.6 8 Sur 21 Sur 0.2 988.7 1.6 94